Terminal Aerodrome Forecast
Issued by NWS Northern Indiana

Home | Current Version | Previous Version | Text Only | Print | Product List | Glossary On
Versions: 1 2 3 4 5 6 7 8 9 10 11 12 13 14 15 16 17 18 19 20
337
FTUS43 KIWX 222337
TAFFWA
TAF
KFWA 222337Z 2300/2324 20007KT P6SM OVC025
     FM231000 23089KT P6SM BKN015
     FM231100 23009KT P6SM BKN008
     FM231800 25005KT P6SM BKN005
     FM232000 04005KT P6SM OVC045=

USA.gov is the U.S. government's official web portal to all federal, state and local government web resources and services.